sensor_id;sensor_type;location;lat;lon;timestamp;P1;durP1;ratioP1;P2;durP2;ratioP2
23543;SDS011;11950;51.230;4.012;2024-02-15T00:01:10;5.88;;;2.30;;
23543;SDS011;11950;51.230;4.012;2024-02-15T00:03:37;8.70;;;2.53;;
23543;SDS011;11950;51.230;4.012;2024-02-15T00:06:03;4.40;;;2.45;;
23543;SDS011;11950;51.230;4.012;2024-02-15T00:08:29;4.97;;;2.30;;
23543;SDS011;11950;51.230;4.012;2024-02-15T00:10:56;8.55;;;2.38;;
23543;SDS011;11950;51.230;4.012;2024-02-15T00:13:22;5.90;;;2.17;;
23543;SDS011;11950;51.230;4.012;2024-02-15T00:15:48;10.23;;;2.22;;
23543;SDS011;11950;51.230;4.012;2024-02-15T00:18:15;5.95;;;2.45;;
23543;SDS011;11950;51.230;4.012;2024-02-15T00:20:42;6.95;;;1.90;;
23543;SDS011;11950;51.230;4.012;2024-02-15T00:23:09;7.35;;;2.10;;
23543;SDS011;11950;51.230;4.012;2024-02-15T00:25:36;6.72;;;2.53;;
23543;SDS011;11950;51.230;4.012;2024-02-15T00:28:02;6.85;;;2.30;;
23543;SDS011;11950;51.230;4.012;2024-02-15T00:30:28;5.80;;;2.15;;
23543;SDS011;11950;51.230;4.012;2024-02-15T00:32:55;6.03;;;2.92;;
23543;SDS011;11950;51.230;4.012;2024-02-15T00:35:21;5.70;;;2.35;;
23543;SDS011;11950;51.230;4.012;2024-02-15T00:37:47;4.95;;;2.50;;
23543;SDS011;11950;51.230;4.012;2024-02-15T00:40:15;7.85;;;2.30;;
23543;SDS011;11950;51.230;4.012;2024-02-15T00:42:41;5.75;;;2.20;;
23543;SDS011;11950;51.230;4.012;2024-02-15T00:45:08;9.48;;;1.80;;
23543;SDS011;11950;51.230;4.012;2024-02-15T00:47:35;5.82;;;1.85;;
23543;SDS011;11950;51.230;4.012;2024-02-15T00:50:02;8.15;;;2.80;;
23543;SDS011;11950;51.230;4.012;2024-02-15T00:52:28;7.40;;;1.70;;
23543;SDS011;11950;51.230;4.012;2024-02-15T00:54:56;8.75;;;2.22;;
23543;SDS011;11950;51.230;4.012;2024-02-15T00:57:23;8.90;;;2.13;;
23543;SDS011;11950;51.230;4.012;2024-02-15T00:59:49;6.18;;;2.00;;
23543;SDS011;11950;51.230;4.012;2024-02-15T01:02:17;7.45;;;2.05;;
23543;SDS011;11950;51.230;4.012;2024-02-15T01:04:43;8.85;;;1.80;;
23543;SDS011;11950;51.230;4.012;2024-02-15T01:07:11;4.82;;;1.70;;
23543;SDS011;11950;51.230;4.012;2024-02-15T01:09:38;4.75;;;2.10;;
23543;SDS011;11950;51.230;4.012;2024-02-15T01:12:04;8.27;;;1.80;;
23543;SDS011;11950;51.230;4.012;2024-02-15T01:14:30;5.32;;;2.28;;
23543;SDS011;11950;51.230;4.012;2024-02-15T01:16:57;6.65;;;2.20;;
23543;SDS011;11950;51.230;4.012;2024-02-15T01:19:23;4.45;;;1.70;;
23543;SDS011;11950;51.230;4.012;2024-02-15T01:21:50;5.95;;;1.88;;
23543;SDS011;11950;51.230;4.012;2024-02-15T01:24:16;9.45;;;2.15;;
23543;SDS011;11950;51.230;4.012;2024-02-15T01:26:42;7.07;;;2.00;;
23543;SDS011;11950;51.230;4.012;2024-02-15T01:29:09;8.55;;;2.20;;
23543;SDS011;11950;51.230;4.012;2024-02-15T01:31:37;7.60;;;2.38;;
23543;SDS011;11950;51.230;4.012;2024-02-15T01:34:04;10.05;;;1.92;;
23543;SDS011;11950;51.230;4.012;2024-02-15T01:36:30;6.55;;;1.90;;
23543;SDS011;11950;51.230;4.012;2024-02-15T01:38:57;8.63;;;2.05;;
23543;SDS011;11950;51.230;4.012;2024-02-15T01:41:23;6.47;;;2.25;;
23543;SDS011;11950;51.230;4.012;2024-02-15T01:43:49;4.97;;;1.67;;
23543;SDS011;11950;51.230;4.012;2024-02-15T01:46:15;9.07;;;1.75;;
23543;SDS011;11950;51.230;4.012;2024-02-15T01:48:42;9.55;;;2.10;;
23543;SDS011;11950;51.230;4.012;2024-02-15T01:51:09;9.30;;;1.90;;
23543;SDS011;11950;51.230;4.012;2024-02-15T01:53:37;7.65;;;1.80;;
23543;SDS011;11950;51.230;4.012;2024-02-15T01:56:04;10.00;;;1.90;;
23543;SDS011;11950;51.230;4.012;2024-02-15T01:58:31;7.75;;;2.15;;
23543;SDS011;11950;51.230;4.012;2024-02-15T02:00:58;5.72;;;2.35;;
23543;SDS011;11950;51.230;4.012;2024-02-15T02:03:27;6.22;;;1.92;;
23543;SDS011;11950;51.230;4.012;2024-02-15T02:05:53;8.80;;;2.10;;
23543;SDS011;11950;51.230;4.012;2024-02-15T02:08:20;4.78;;;1.83;;
23543;SDS011;11950;51.230;4.012;2024-02-15T02:10:46;8.85;;;2.20;;
23543;SDS011;11950;51.230;4.012;2024-02-15T02:13:12;5.90;;;2.05;;
23543;SDS011;11950;51.230;4.012;2024-02-15T02:15:38;7.00;;;2.38;;
23543;SDS011;11950;51.230;4.012;2024-02-15T02:18:05;7.43;;;3.03;;
23543;SDS011;11950;51.230;4.012;2024-02-15T02:20:36;9.35;;;2.20;;
23543;SDS011;11950;51.230;4.012;2024-02-15T02:25:42;4.15;;;2.10;;
23543;SDS011;11950;51.230;4.012;2024-02-15T02:28:10;8.15;;;2.67;;
23543;SDS011;11950;51.230;4.012;2024-02-15T02:30:37;8.93;;;2.80;;
23543;SDS011;11950;51.230;4.012;2024-02-15T02:33:13;6.22;;;2.22;;
23543;SDS011;11950;51.230;4.012;2024-02-15T02:35:47;10.87;;;2.80;;
23543;SDS011;11950;51.230;4.012;2024-02-15T02:38:14;5.43;;;1.98;;
23543;SDS011;11950;51.230;4.012;2024-02-15T02:40:40;6.57;;;2.45;;
23543;SDS011;11950;51.230;4.012;2024-02-15T02:43:07;5.07;;;2.03;;
23543;SDS011;11950;51.230;4.012;2024-02-15T02:45:33;8.07;;;2.47;;
23543;SDS011;11950;51.230;4.012;2024-02-15T02:48:00;7.70;;;2.38;;
23543;SDS011;11950;51.230;4.012;2024-02-15T02:50:26;5.18;;;2.05;;
23543;SDS011;11950;51.230;4.012;2024-02-15T02:52:53;6.15;;;2.60;;
23543;SDS011;11950;51.230;4.012;2024-02-15T02:55:19;4.53;;;2.40;;
23543;SDS011;11950;51.230;4.012;2024-02-15T02:57:46;8.43;;;2.53;;
23543;SDS011;11950;51.230;4.012;2024-02-15T03:00:13;9.48;;;2.42;;
23543;SDS011;11950;51.230;4.012;2024-02-15T03:02:43;5.13;;;2.07;;
23543;SDS011;11950;51.230;4.012;2024-02-15T03:05:10;6.85;;;2.22;;
23543;SDS011;11950;51.230;4.012;2024-02-15T03:07:37;7.07;;;2.22;;
23543;SDS011;11950;51.230;4.012;2024-02-15T03:10:04;7.35;;;2.22;;
23543;SDS011;11950;51.230;4.012;2024-02-15T03:12:34;5.78;;;2.35;;
23543;SDS011;11950;51.230;4.012;2024-02-15T03:15:04;8.15;;;2.60;;
23543;SDS011;11950;51.230;4.012;2024-02-15T03:17:43;7.22;;;2.72;;
23543;SDS011;11950;51.230;4.012;2024-02-15T03:20:11;9.70;;;2.67;;
23543;SDS011;11950;51.230;4.012;2024-02-15T03:22:53;5.45;;;2.20;;
23543;SDS011;11950;51.230;4.012;2024-02-15T03:25:21;10.02;;;2.03;;
23543;SDS011;11950;51.230;4.012;2024-02-15T03:27:52;2.63;;;2.13;;
23543;SDS011;11950;51.230;4.012;2024-02-15T03:30:19;6.05;;;1.90;;
23543;SDS011;11950;51.230;4.012;2024-02-15T03:32:46;4.68;;;2.08;;
23543;SDS011;11950;51.230;4.012;2024-02-15T03:35:22;7.75;;;2.08;;
23543;SDS011;11950;51.230;4.012;2024-02-15T03:37:50;7.05;;;2.30;;
23543;SDS011;11950;51.230;4.012;2024-02-15T03:40:17;7.68;;;2.10;;
23543;SDS011;11950;51.230;4.012;2024-02-15T03:42:44;10.85;;;2.17;;
23543;SDS011;11950;51.230;4.012;2024-02-15T03:45:12;6.25;;;2.38;;
23543;SDS011;11950;51.230;4.012;2024-02-15T03:47:38;8.77;;;2.20;;
23543;SDS011;11950;51.230;4.012;2024-02-15T03:50:05;4.60;;;2.20;;
23543;SDS011;11950;51.230;4.012;2024-02-15T03:52:35;4.10;;;2.00;;
23543;SDS011;11950;51.230;4.012;2024-02-15T03:55:02;5.07;;;2.22;;
23543;SDS011;11950;51.230;4.012;2024-02-15T03:57:28;5.18;;;2.13;;
23543;SDS011;11950;51.230;4.012;2024-02-15T03:59:55;5.30;;;2.00;;
23543;SDS011;11950;51.230;4.012;2024-02-15T04:02:24;6.10;;;1.80;;
23543;SDS011;11950;51.230;4.012;2024-02-15T04:04:52;3.92;;;1.92;;
23543;SDS011;11950;51.230;4.012;2024-02-15T04:07:20;4.40;;;2.10;;
23543;SDS011;11950;51.230;4.012;2024-02-15T04:09:48;8.07;;;2.35;;
23543;SDS011;11950;51.230;4.012;2024-02-15T04:12:14;6.47;;;2.22;;
23543;SDS011;11950;51.230;4.012;2024-02-15T04:14:45;6.47;;;2.15;;
23543;SDS011;11950;51.230;4.012;2024-02-15T04:17:12;4.65;;;2.08;;
23543;SDS011;11950;51.230;4.012;2024-02-15T04:19:39;6.00;;;2.08;;
23543;SDS011;11950;51.230;4.012;2024-02-15T04:22:05;3.85;;;2.00;;
23543;SDS011;11950;51.230;4.012;2024-02-15T04:24:33;4.97;;;1.77;;
23543;SDS011;11950;51.230;4.012;2024-02-15T04:27:00;8.05;;;2.50;;
23543;SDS011;11950;51.230;4.012;2024-02-15T04:29:26;3.58;;;1.65;;
23543;SDS011;11950;51.230;4.012;2024-02-15T04:31:53;5.25;;;2.20;;
23543;SDS011;11950;51.230;4.012;2024-02-15T04:34:20;5.03;;;1.75;;
23543;SDS011;11950;51.230;4.012;2024-02-15T04:36:47;5.65;;;1.92;;
23543;SDS011;11950;51.230;4.012;2024-02-15T04:39:23;6.25;;;1.70;;
23543;SDS011;11950;51.230;4.012;2024-02-15T04:41:55;3.10;;;2.10;;
23543;SDS011;11950;51.230;4.012;2024-02-15T04:44:22;2.30;;;1.52;;
23543;SDS011;11950;51.230;4.012;2024-02-15T04:46:52;4.88;;;1.92;;
23543;SDS011;11950;51.230;4.012;2024-02-15T04:49:19;4.05;;;1.80;;
23543;SDS011;11950;51.230;4.012;2024-02-15T04:51:46;7.50;;;1.92;;
23543;SDS011;11950;51.230;4.012;2024-02-15T04:54:15;7.72;;;2.03;;
23543;SDS011;11950;51.230;4.012;2024-02-15T04:56:43;4.75;;;2.17;;
23543;SDS011;11950;51.230;4.012;2024-02-15T04:59:10;7.00;;;2.50;;
23543;SDS011;11950;51.230;4.012;2024-02-15T05:01:41;4.80;;;2.10;;
23543;SDS011;11950;51.230;4.012;2024-02-15T05:04:11;4.35;;;2.28;;
23543;SDS011;11950;51.230;4.012;2024-02-15T05:06:39;5.10;;;2.10;;
23543;SDS011;11950;51.230;4.012;2024-02-15T05:09:05;6.50;;;2.05;;
23543;SDS011;11950;51.230;4.012;2024-02-15T05:11:36;5.30;;;2.30;;
23543;SDS011;11950;51.230;4.012;2024-02-15T05:14:07;4.63;;;2.20;;
23543;SDS011;11950;51.230;4.012;2024-02-15T05:16:33;6.57;;;2.60;;
23543;SDS011;11950;51.230;4.012;2024-02-15T05:19:00;4.93;;;2.15;;
23543;SDS011;11950;51.230;4.012;2024-02-15T05:21:27;6.60;;;2.45;;
23543;SDS011;11950;51.230;4.012;2024-02-15T05:23:53;6.15;;;2.20;;
23543;SDS011;11950;51.230;4.012;2024-02-15T05:26:21;4.35;;;2.30;;
23543;SDS011;11950;51.230;4.012;2024-02-15T05:28:52;5.15;;;2.55;;
23543;SDS011;11950;51.230;4.012;2024-02-15T05:31:19;4.30;;;2.17;;
23543;SDS011;11950;51.230;4.012;2024-02-15T05:33:46;3.83;;;2.10;;
23543;SDS011;11950;51.230;4.012;2024-02-15T05:36:13;8.55;;;1.90;;
23543;SDS011;11950;51.230;4.012;2024-02-15T05:38:40;5.45;;;2.13;;
23543;SDS011;11950;51.230;4.012;2024-02-15T05:41:07;4.15;;;2.40;;
23543;SDS011;11950;51.230;4.012;2024-02-15T05:43:34;7.60;;;2.03;;
23543;SDS011;11950;51.230;4.012;2024-02-15T05:46:02;3.75;;;2.15;;
23543;SDS011;11950;51.230;4.012;2024-02-15T05:48:29;6.10;;;2.10;;
23543;SDS011;11950;51.230;4.012;2024-02-15T05:50:55;2.95;;;1.88;;
23543;SDS011;11950;51.230;4.012;2024-02-15T05:53:23;2.80;;;1.85;;
23543;SDS011;11950;51.230;4.012;2024-02-15T05:55:50;7.15;;;2.03;;
23543;SDS011;11950;51.230;4.012;2024-02-15T05:58:17;5.40;;;2.50;;
23543;SDS011;11950;51.230;4.012;2024-02-15T06:00:43;8.88;;;1.88;;
23543;SDS011;11950;51.230;4.012;2024-02-15T06:03:15;5.78;;;2.20;;
23543;SDS011;11950;51.230;4.012;2024-02-15T06:05:42;4.28;;;2.33;;
23543;SDS011;11950;51.230;4.012;2024-02-15T06:08:09;6.63;;;2.13;;
23543;SDS011;11950;51.230;4.012;2024-02-15T06:10:38;4.55;;;1.80;;
23543;SDS011;11950;51.230;4.012;2024-02-15T06:13:06;5.45;;;2.10;;
23543;SDS011;11950;51.230;4.012;2024-02-15T06:15:34;4.68;;;1.75;;
23543;SDS011;11950;51.230;4.012;2024-02-15T06:18:00;5.45;;;1.63;;
23543;SDS011;11950;51.230;4.012;2024-02-15T06:20:29;4.25;;;1.75;;
23543;SDS011;11950;51.230;4.012;2024-02-15T06:22:56;6.57;;;2.45;;
23543;SDS011;11950;51.230;4.012;2024-02-15T06:25:22;3.67;;;1.40;;
23543;SDS011;11950;51.230;4.012;2024-02-15T06:27:48;4.13;;;1.50;;
23543;SDS011;11950;51.230;4.012;2024-02-15T06:30:16;4.53;;;1.48;;
23543;SDS011;11950;51.230;4.012;2024-02-15T06:33:01;6.85;;;1.85;;
23543;SDS011;11950;51.230;4.012;2024-02-15T06:35:46;3.15;;;1.48;;
23543;SDS011;11950;51.230;4.012;2024-02-15T06:38:31;3.60;;;1.40;;
23543;SDS011;11950;51.230;4.012;2024-02-15T06:41:16;9.65;;;1.38;;
23543;SDS011;11950;51.230;4.012;2024-02-15T06:43:44;4.25;;;1.52;;
23543;SDS011;11950;51.230;4.012;2024-02-15T06:46:11;5.78;;;1.67;;
23543;SDS011;11950;51.230;4.012;2024-02-15T06:48:41;7.38;;;1.50;;
23543;SDS011;11950;51.230;4.012;2024-02-15T06:53:40;4.80;;;1.48;;
23543;SDS011;11950;51.230;4.012;2024-02-15T06:56:10;3.58;;;1.60;;
23543;SDS011;11950;51.230;4.012;2024-02-15T06:58:37;4.50;;;1.40;;
23543;SDS011;11950;51.230;4.012;2024-02-15T07:01:03;4.43;;;1.42;;
23543;SDS011;11950;51.230;4.012;2024-02-15T07:03:30;3.75;;;1.30;;
23543;SDS011;11950;51.230;4.012;2024-02-15T07:05:58;4.30;;;1.60;;
23543;SDS011;11950;51.230;4.012;2024-02-15T07:08:24;2.22;;;1.33;;
23543;SDS011;11950;51.230;4.012;2024-02-15T07:10:50;6.55;;;1.35;;
23543;SDS011;11950;51.230;4.012;2024-02-15T07:13:19;5.45;;;1.35;;
23543;SDS011;11950;51.230;4.012;2024-02-15T07:15:46;2.42;;;1.20;;
23543;SDS011;11950;51.230;4.012;2024-02-15T07:18:12;2.30;;;1.30;;
23543;SDS011;11950;51.230;4.012;2024-02-15T07:20:45;5.50;;;1.48;;
23543;SDS011;11950;51.230;4.012;2024-02-15T07:23:11;4.50;;;1.58;;
23543;SDS011;11950;51.230;4.012;2024-02-15T07:25:37;3.15;;;1.10;;
23543;SDS011;11950;51.230;4.012;2024-02-15T07:28:05;3.22;;;1.48;;
23543;SDS011;11950;51.230;4.012;2024-02-15T07:30:31;2.15;;;1.10;;
23543;SDS011;11950;51.230;4.012;2024-02-15T07:32:57;2.40;;;1.10;;
23543;SDS011;11950;51.230;4.012;2024-02-15T07:35:23;4.68;;;1.15;;
23543;SDS011;11950;51.230;4.012;2024-02-15T07:37:51;3.38;;;1.42;;
23543;SDS011;11950;51.230;4.012;2024-02-15T07:40:26;3.25;;;1.23;;
23543;SDS011;11950;51.230;4.012;2024-02-15T07:42:57;3.35;;;1.20;;
23543;SDS011;11950;51.230;4.012;2024-02-15T07:45:23;4.07;;;1.00;;
23543;SDS011;11950;51.230;4.012;2024-02-15T07:47:50;3.05;;;1.20;;
23543;SDS011;11950;51.230;4.012;2024-02-15T07:50:17;4.47;;;1.10;;
23543;SDS011;11950;51.230;4.012;2024-02-15T07:52:46;2.50;;;1.02;;
23543;SDS011;11950;51.230;4.012;2024-02-15T07:55:13;3.10;;;1.10;;
23543;SDS011;11950;51.230;4.012;2024-02-15T07:57:40;2.60;;;1.25;;
23543;SDS011;11950;51.230;4.012;2024-02-15T08:00:07;3.00;;;1.55;;
23543;SDS011;11950;51.230;4.012;2024-02-15T08:02:37;2.13;;;1.40;;
23543;SDS011;11950;51.230;4.012;2024-02-15T08:05:06;6.25;;;1.10;;
23543;SDS011;11950;51.230;4.012;2024-02-15T08:07:42;3.78;;;1.13;;
23543;SDS011;11950;51.230;4.012;2024-02-15T08:10:13;2.80;;;1.20;;
23543;SDS011;11950;51.230;4.012;2024-02-15T08:12:43;4.72;;;1.33;;
23543;SDS011;11950;51.230;4.012;2024-02-15T08:15:10;3.42;;;1.38;;
23543;SDS011;11950;51.230;4.012;2024-02-15T08:17:44;4.40;;;1.20;;
23543;SDS011;11950;51.230;4.012;2024-02-15T08:20:14;5.53;;;1.10;;
23543;SDS011;11950;51.230;4.012;2024-02-15T08:22:46;2.83;;;1.30;;
23543;SDS011;11950;51.230;4.012;2024-02-15T08:25:13;2.25;;;1.25;;
23543;SDS011;11950;51.230;4.012;2024-02-15T08:27:44;3.47;;;1.67;;
23543;SDS011;11950;51.230;4.012;2024-02-15T08:32:41;2.30;;;1.30;;
23543;SDS011;11950;51.230;4.012;2024-02-15T08:35:09;2.92;;;1.50;;
23543;SDS011;11950;51.230;4.012;2024-02-15T08:37:36;4.32;;;1.55;;
23543;SDS011;11950;51.230;4.012;2024-02-15T08:40:04;5.07;;;1.77;;
23543;SDS011;11950;51.230;4.012;2024-02-15T08:42:37;6.10;;;1.40;;
23543;SDS011;11950;51.230;4.012;2024-02-15T08:45:04;5.15;;;1.52;;
23543;SDS011;11950;51.230;4.012;2024-02-15T08:47:37;5.40;;;1.48;;
23543;SDS011;11950;51.230;4.012;2024-02-15T08:50:04;6.88;;;1.65;;
23543;SDS011;11950;51.230;4.012;2024-02-15T08:52:32;3.10;;;1.67;;
23543;SDS011;11950;51.230;4.012;2024-02-15T08:54:58;5.70;;;1.60;;
23543;SDS011;11950;51.230;4.012;2024-02-15T08:57:26;4.85;;;2.08;;
23543;SDS011;11950;51.230;4.012;2024-02-15T08:59:52;3.83;;;1.60;;
23543;SDS011;11950;51.230;4.012;2024-02-15T09:02:18;3.65;;;1.60;;
23543;SDS011;11950;51.230;4.012;2024-02-15T09:04:45;2.28;;;1.50;;
23543;SDS011;11950;51.230;4.012;2024-02-15T09:07:11;6.07;;;1.40;;
23543;SDS011;11950;51.230;4.012;2024-02-15T09:09:37;6.38;;;1.60;;
23543;SDS011;11950;51.230;4.012;2024-02-15T09:12:03;4.15;;;1.63;;
23543;SDS011;11950;51.230;4.012;2024-02-15T09:14:33;3.55;;;1.80;;
23543;SDS011;11950;51.230;4.012;2024-02-15T09:17:00;3.65;;;1.63;;
23543;SDS011;11950;51.230;4.012;2024-02-15T09:19:27;3.90;;;1.67;;
23543;SDS011;11950;51.230;4.012;2024-02-15T09:21:53;2.95;;;1.50;;
23543;SDS011;11950;51.230;4.012;2024-02-15T09:24:20;5.35;;;1.75;;
23543;SDS011;11950;51.230;4.012;2024-02-15T09:26:47;3.72;;;1.77;;
23543;SDS011;11950;51.230;4.012;2024-02-15T09:29:13;3.75;;;1.70;;
23543;SDS011;11950;51.230;4.012;2024-02-15T09:31:39;6.03;;;1.50;;
23543;SDS011;11950;51.230;4.012;2024-02-15T09:34:06;5.22;;;1.38;;
23543;SDS011;11950;51.230;4.012;2024-02-15T09:36:35;4.45;;;1.38;;
23543;SDS011;11950;51.230;4.012;2024-02-15T09:39:05;3.08;;;1.50;;
23543;SDS011;11950;51.230;4.012;2024-02-15T09:41:32;4.30;;;1.55;;
23543;SDS011;11950;51.230;4.012;2024-02-15T09:43:59;5.80;;;1.60;;
23543;SDS011;11950;51.230;4.012;2024-02-15T09:46:27;1.92;;;1.20;;
23543;SDS011;11950;51.230;4.012;2024-02-15T09:48:55;3.08;;;1.30;;
23543;SDS011;11950;51.230;4.012;2024-02-15T09:51:25;3.42;;;1.30;;
23543;SDS011;11950;51.230;4.012;2024-02-15T09:53:55;4.15;;;1.40;;
23543;SDS011;11950;51.230;4.012;2024-02-15T09:56:23;5.28;;;1.40;;
23543;SDS011;11950;51.230;4.012;2024-02-15T09:58:51;8.25;;;1.75;;
23543;SDS011;11950;51.230;4.012;2024-02-15T10:01:19;5.35;;;1.48;;
23543;SDS011;11950;51.230;4.012;2024-02-15T10:03:49;5.00;;;1.30;;
23543;SDS011;11950;51.230;4.012;2024-02-15T10:06:19;4.00;;;1.60;;
23543;SDS011;11950;51.230;4.012;2024-02-15T10:08:45;3.83;;;1.40;;
23543;SDS011;11950;51.230;4.012;2024-02-15T10:11:12;2.85;;;1.50;;
23543;SDS011;11950;51.230;4.012;2024-02-15T10:13:39;4.03;;;1.60;;
23543;SDS011;11950;51.230;4.012;2024-02-15T10:16:13;5.72;;;2.13;;
23543;SDS011;11950;51.230;4.012;2024-02-15T10:18:50;4.57;;;1.90;;
23543;SDS011;11950;51.230;4.012;2024-02-15T10:21:23;5.18;;;2.00;;
23543;SDS011;11950;51.230;4.012;2024-02-15T10:24:06;5.63;;;1.70;;
23543;SDS011;11950;51.230;4.012;2024-02-15T10:26:34;2.53;;;1.50;;
23543;SDS011;11950;51.230;4.012;2024-02-15T10:29:08;7.65;;;1.60;;
23543;SDS011;11950;51.230;4.012;2024-02-15T10:31:36;2.30;;;1.30;;
23543;SDS011;11950;51.230;4.012;2024-02-15T10:34:04;4.95;;;1.33;;
23543;SDS011;11950;51.230;4.012;2024-02-15T10:36:31;4.40;;;1.38;;
23543;SDS011;11950;51.230;4.012;2024-02-15T10:39:15;4.15;;;1.10;;
23543;SDS011;11950;51.230;4.012;2024-02-15T10:44:14;3.30;;;1.23;;
23543;SDS011;11950;51.230;4.012;2024-02-15T10:46:45;3.40;;;1.30;;
23543;SDS011;11950;51.230;4.012;2024-02-15T10:51:55;4.97;;;1.25;;
23543;SDS011;11950;51.230;4.012;2024-02-15T10:57:20;4.95;;;1.30;;
23543;SDS011;11950;51.230;4.012;2024-02-15T10:59:56;4.85;;;1.40;;
23543;SDS011;11950;51.230;4.012;2024-02-15T11:02:25;2.13;;;1.20;;
23543;SDS011;11950;51.230;4.012;2024-02-15T11:04:55;3.35;;;1.13;;
23543;SDS011;11950;51.230;4.012;2024-02-15T11:07:38;4.47;;;1.30;;
23543;SDS011;11950;51.230;4.012;2024-02-15T11:10:05;2.58;;;1.10;;
23543;SDS011;11950;51.230;4.012;2024-02-15T11:12:34;4.63;;;1.42;;
23543;SDS011;11950;51.230;4.012;2024-02-15T11:15:00;4.45;;;1.27;;
23543;SDS011;11950;51.230;4.012;2024-02-15T11:20:08;4.78;;;1.23;;
23543;SDS011;11950;51.230;4.012;2024-02-15T11:22:37;2.00;;;1.02;;
23543;SDS011;11950;51.230;4.012;2024-02-15T11:25:04;2.30;;;1.02;;
23543;SDS011;11950;51.230;4.012;2024-02-15T11:27:42;4.90;;;1.20;;
23543;SDS011;11950;51.230;4.012;2024-02-15T11:30:08;2.58;;;1.00;;
23543;SDS011;11950;51.230;4.012;2024-02-15T11:32:44;2.55;;;1.00;;
23543;SDS011;11950;51.230;4.012;2024-02-15T11:35:19;3.10;;;1.17;;
23543;SDS011;11950;51.230;4.012;2024-02-15T11:40:24;5.95;;;1.23;;
23543;SDS011;11950;51.230;4.012;2024-02-15T11:42:58;3.78;;;1.30;;
23543;SDS011;11950;51.230;4.012;2024-02-15T11:45:26;4.45;;;1.38;;
23543;SDS011;11950;51.230;4.012;2024-02-15T11:47:58;5.03;;;1.10;;
23543;SDS011;11950;51.230;4.012;2024-02-15T11:50:27;2.95;;;1.00;;
23543;SDS011;11950;51.230;4.012;2024-02-15T11:53:01;3.67;;;1.20;;
23543;SDS011;11950;51.230;4.012;2024-02-15T11:55:35;1.88;;;1.10;;
23543;SDS011;11950;51.230;4.012;2024-02-15T11:58:02;5.28;;;1.00;;
23543;SDS011;11950;51.230;4.012;2024-02-15T12:00:35;5.80;;;1.23;;
23543;SDS011;11950;51.230;4.012;2024-02-15T12:03:23;3.78;;;0.98;;
23543;SDS011;11950;51.230;4.012;2024-02-15T12:06:09;3.83;;;0.93;;
23543;SDS011;11950;51.230;4.012;2024-02-15T12:08:54;5.13;;;1.75;;
23543;SDS011;11950;51.230;4.012;2024-02-15T12:11:39;4.90;;;1.45;;
23543;SDS011;11950;51.230;4.012;2024-02-15T12:14:25;4.45;;;1.42;;
23543;SDS011;11950;51.230;4.012;2024-02-15T12:17:10;2.97;;;1.58;;
23543;SDS011;11950;51.230;4.012;2024-02-15T12:19:59;4.88;;;1.60;;
23543;SDS011;11950;51.230;4.012;2024-02-15T12:22:31;5.15;;;2.00;;
23543;SDS011;11950;51.230;4.012;2024-02-15T12:25:02;4.43;;;1.85;;
23543;SDS011;11950;51.230;4.012;2024-02-15T12:27:37;5.95;;;1.70;;
23543;SDS011;11950;51.230;4.012;2024-02-15T12:30:04;7.18;;;1.77;;
23543;SDS011;11950;51.230;4.012;2024-02-15T12:32:33;6.50;;;2.10;;
23543;SDS011;11950;51.230;4.012;2024-02-15T12:35:14;5.20;;;1.80;;
23543;SDS011;11950;51.230;4.012;2024-02-15T12:37:45;6.35;;;2.28;;
23543;SDS011;11950;51.230;4.012;2024-02-15T12:40:18;6.88;;;1.98;;
23543;SDS011;11950;51.230;4.012;2024-02-15T12:42:45;7.60;;;1.77;;
23543;SDS011;11950;51.230;4.012;2024-02-15T12:45:19;5.18;;;1.50;;
23543;SDS011;11950;51.230;4.012;2024-02-15T12:47:50;6.37;;;1.93;;
23543;SDS011;11950;51.230;4.012;2024-02-15T12:50:17;4.53;;;1.42;;
23543;SDS011;11950;51.230;4.012;2024-02-15T12:52:46;5.82;;;2.05;;
23543;SDS011;11950;51.230;4.012;2024-02-15T12:55:19;7.65;;;1.75;;
23543;SDS011;11950;51.230;4.012;2024-02-15T13:00:20;3.28;;;1.65;;
23543;SDS011;11950;51.230;4.012;2024-02-15T13:02:49;3.55;;;1.20;;
23543;SDS011;11950;51.230;4.012;2024-02-15T13:05:17;5.05;;;1.42;;
23543;SDS011;11950;51.230;4.012;2024-02-15T13:07:44;3.95;;;1.33;;
23543;SDS011;11950;51.230;4.012;2024-02-15T13:10:14;5.35;;;1.35;;
23543;SDS011;11950;51.230;4.012;2024-02-15T13:12:41;3.40;;;1.25;;
23543;SDS011;11950;51.230;4.012;2024-02-15T13:15:11;4.20;;;1.42;;
23543;SDS011;11950;51.230;4.012;2024-02-15T13:17:43;2.75;;;1.30;;
23543;SDS011;11950;51.230;4.012;2024-02-15T13:20:11;2.60;;;1.10;;
23543;SDS011;11950;51.230;4.012;2024-02-15T13:22:40;2.25;;;1.13;;
23543;SDS011;11950;51.230;4.012;2024-02-15T13:25:09;3.55;;;1.23;;
23543;SDS011;11950;51.230;4.012;2024-02-15T13:27:36;5.00;;;1.10;;
23543;SDS011;11950;51.230;4.012;2024-02-15T13:30:05;2.47;;;0.90;;
23543;SDS011;11950;51.230;4.012;2024-02-15T13:32:38;7.30;;;1.10;;
23543;SDS011;11950;51.230;4.012;2024-02-15T13:35:09;1.55;;;0.90;;
23543;SDS011;11950;51.230;4.012;2024-02-15T13:37:57;1.95;;;0.80;;
23543;SDS011;11950;51.230;4.012;2024-02-15T13:40:26;1.17;;;0.90;;
23543;SDS011;11950;51.230;4.012;2024-02-15T13:43:00;1.95;;;0.85;;
23543;SDS011;11950;51.230;4.012;2024-02-15T13:45:30;3.20;;;0.90;;
23543;SDS011;11950;51.230;4.012;2024-02-15T13:48:01;1.95;;;0.65;;
23543;SDS011;11950;51.230;4.012;2024-02-15T13:50:30;2.78;;;0.70;;
23543;SDS011;11950;51.230;4.012;2024-02-15T13:52:57;3.22;;;0.60;;
23543;SDS011;11950;51.230;4.012;2024-02-15T13:55:26;0.95;;;0.60;;
23543;SDS011;11950;51.230;4.012;2024-02-15T13:57:53;1.45;;;0.60;;
23543;SDS011;11950;51.230;4.012;2024-02-15T14:00:21;2.38;;;0.70;;
23543;SDS011;11950;51.230;4.012;2024-02-15T14:02:54;1.23;;;0.70;;
23543;SDS011;11950;51.230;4.012;2024-02-15T14:05:23;2.03;;;0.75;;
23543;SDS011;11950;51.230;4.012;2024-02-15T14:08:00;1.90;;;0.77;;
23543;SDS011;11950;51.230;4.012;2024-02-15T14:10:37;4.50;;;1.23;;
23543;SDS011;11950;51.230;4.012;2024-02-15T14:13:03;15.65;;;3.30;;
23543;SDS011;11950;51.230;4.012;2024-02-15T14:15:31;3.38;;;1.10;;
23543;SDS011;11950;51.230;4.012;2024-02-15T14:18:09;3.55;;;1.00;;
23543;SDS011;11950;51.230;4.012;2024-02-15T14:20:36;3.53;;;0.80;;
23543;SDS011;11950;51.230;4.012;2024-02-15T14:23:03;4.40;;;1.42;;
23543;SDS011;11950;51.230;4.012;2024-02-15T14:25:31;21.38;;;7.32;;
23543;SDS011;11950;51.230;4.012;2024-02-15T14:27:59;37.10;;;11.52;;
23543;SDS011;11950;51.230;4.012;2024-02-15T14:30:26;41.22;;;12.63;;
23543;SDS011;11950;51.230;4.012;2024-02-15T14:33:11;33.20;;;9.77;;
23543;SDS011;11950;51.230;4.012;2024-02-15T14:35:41;10.80;;;2.65;;
23543;SDS011;11950;51.230;4.012;2024-02-15T14:38:09;7.07;;;2.47;;
23543;SDS011;11950;51.230;4.012;2024-02-15T14:40:37;11.68;;;2.60;;
23543;SDS011;11950;51.230;4.012;2024-02-15T14:43:05;13.65;;;4.38;;
23543;SDS011;11950;51.230;4.012;2024-02-15T14:45:33;27.35;;;7.32;;
23543;SDS011;11950;51.230;4.012;2024-02-15T14:48:00;7.60;;;1.88;;
23543;SDS011;11950;51.230;4.012;2024-02-15T14:50:27;6.28;;;1.50;;
23543;SDS011;11950;51.230;4.012;2024-02-15T14:52:53;2.15;;;0.90;;
23543;SDS011;11950;51.230;4.012;2024-02-15T14:55:19;3.72;;;1.10;;
23543;SDS011;11950;51.230;4.012;2024-02-15T14:57:46;2.65;;;0.90;;
23543;SDS011;11950;51.230;4.012;2024-02-15T15:00:13;5.32;;;1.48;;
23543;SDS011;11950;51.230;4.012;2024-02-15T15:02:46;9.57;;;3.53;;
23543;SDS011;11950;51.230;4.012;2024-02-15T15:05:13;10.70;;;3.43;;
23543;SDS011;11950;51.230;4.012;2024-02-15T15:07:58;25.20;;;6.72;;
23543;SDS011;11950;51.230;4.012;2024-02-15T15:10:47;13.65;;;4.40;;
23543;SDS011;11950;51.230;4.012;2024-02-15T15:13:32;14.25;;;3.65;;
23543;SDS011;11950;51.230;4.012;2024-02-15T15:15:59;5.40;;;1.40;;
23543;SDS011;11950;51.230;4.012;2024-02-15T15:18:28;4.25;;;0.88;;
23543;SDS011;11950;51.230;4.012;2024-02-15T15:20:57;20.27;;;6.35;;
23543;SDS011;11950;51.230;4.012;2024-02-15T15:23:26;24.73;;;5.63;;